Time;durP1;ratioP1;P1;durP2;ratioP2;P2;SDS_P1;SDS_P2;PMS_P1;PMS_P2;Temp;Humidity;BMP_temperature;BMP_pressure;BME280_temperature;BME280_humidity;BME280_pressure;Samples;Min_cycle;Max_cycle;Signal;HPM_P1;HPM_P2
2023/10/20 00:01:00;;;;;;;21.45;5.50;;;23.50;85.10;;;;;;6249676;22;20023;-75
2023/10/20 00:03:26;;;;;;;20.17;5.15;;;23.50;84.90;;;;;;6276706;22;20502;-76
2023/10/20 00:05:52;;;;;;;17.77;4.93;;;23.50;84.30;;;;;;6276728;22;20007;-76
2023/10/20 00:08:17;;;;;;;18.77;5.15;;;23.50;83.60;;;;;;6276943;22;20030;-75
2023/10/20 00:10:43;;;;;;;17.33;5.05;;;23.50;83.10;;;;;;6255273;22;20076;-76
2023/10/20 00:13:09;;;;;;;16.40;4.68;;;23.50;82.90;;;;;;6246434;23;20434;-76
2023/10/20 00:15:35;;;;;;;16.20;4.47;;;23.50;81.10;;;;;;6245933;23;20075;-76
2023/10/20 00:18:02;;;;;;;17.52;4.53;;;23.50;80.80;;;;;;6245872;23;20497;-77
2023/10/20 00:20:28;;;;;;;17.60;4.43;;;23.50;79.70;;;;;;6246412;23;20302;-76
2023/10/20 00:22:55;;;;;;;16.42;4.75;;;23.50;79.40;;;;;;6246426;23;20367;-77
2023/10/20 00:25:21;;;;;;;17.65;5.05;;;23.50;79.30;;;;;;6219247;23;20445;-77
2023/10/20 00:27:47;;;;;;;18.25;5.45;;;23.50;78.60;;;;;;6246227;23;20000;-77
2023/10/20 00:30:14;;;;;;;15.43;4.25;;;23.50;78.60;;;;;;6246006;23;20008;-75
2023/10/20 00:32:40;;;;;;;14.02;4.65;;;23.60;77.90;;;;;;6246591;23;20016;-76
2023/10/20 00:35:09;;;;;;;18.08;4.85;;;23.60;78.20;;;;;;6246371;23;20326;-76
2023/10/20 00:37:35;;;;;;;17.58;4.50;;;23.60;77.20;;;;;;6245721;23;20028;-76
2023/10/20 00:40:07;;;;;;;17.63;4.97;;;23.60;76.00;;;;;;6245864;23;19996;-77
2023/10/20 00:42:33;;;;;;;20.38;4.72;;;23.60;76.00;;;;;;6245810;23;20012;-76
2023/10/20 00:44:59;;;;;;;19.13;4.97;;;23.60;75.20;;;;;;6246055;23;20001;-76
2023/10/20 00:47:26;;;;;;;19.15;5.32;;;23.60;75.20;;;;;;6246027;23;20099;-76
2023/10/20 00:49:52;;;;;;;18.38;4.68;;;23.60;74.50;;;;;;6242980;23;20389;-74
2023/10/20 00:52:19;;;;;;;17.50;4.30;;;23.60;74.40;;;;;;6245491;23;20030;-76
2023/10/20 00:54:47;;;;;;;14.40;4.43;;;23.60;74.00;;;;;;6246028;23;20003;-76
2023/10/20 00:57:16;;;;;;;17.83;5.20;;;23.60;74.20;;;;;;6245790;23;20003;-76
2023/10/20 00:59:42;;;;;;;15.27;4.00;;;23.60;73.60;;;;;;6246131;23;20028;-77
2023/10/20 01:02:08;;;;;;;15.85;4.13;;;23.60;73.60;;;;;;6245633;23;20027;-77
2023/10/20 01:04:34;;;;;;;19.77;4.45;;;23.70;73.80;;;;;;6245352;23;20422;-75
2023/10/20 01:07:00;;;;;;;17.38;4.55;;;23.70;72.60;;;;;;6245905;23;20016;-76
2023/10/20 01:09:26;;;;;;;19.52;4.50;;;23.70;72.50;;;;;;6246152;23;20035;-76
2023/10/20 01:11:53;;;;;;;16.08;4.53;;;23.70;72.50;;;;;;6245888;23;20000;-76
2023/10/20 01:14:18;;;;;;;18.33;4.70;;;23.70;72.00;;;;;;6245723;23;20063;-78
2023/10/20 01:16:44;;;;;;;22.10;4.63;;;23.70;71.70;;;;;;6245831;23;20024;-75
2023/10/20 01:19:10;;;;;;;16.30;4.60;;;23.70;71.40;;;;;;6245559;23;20038;-76
2023/10/20 01:21:36;;;;;;;17.55;4.70;;;23.70;71.80;;;;;;6245717;23;20448;-76
2023/10/20 01:24:02;;;;;;;16.90;4.15;;;23.70;71.40;;;;;;6245894;23;19996;-76
2023/10/20 01:26:29;;;;;;;20.33;4.82;;;23.70;71.50;;;;;;6245687;23;20012;-76
2023/10/20 01:28:55;;;;;;;17.98;4.13;;;23.70;70.80;;;;;;6245859;23;19996;-76
2023/10/20 01:31:22;;;;;;;15.73;4.20;;;23.60;70.60;;;;;;6245382;23;20004;-77
2023/10/20 01:33:48;;;;;;;16.33;4.50;;;23.70;70.70;;;;;;6245583;23;20003;-75
2023/10/20 01:36:14;;;;;;;19.70;5.32;;;23.60;71.10;;;;;;6245388;23;20087;-77
2023/10/20 01:38:40;;;;;;;17.92;4.38;;;23.60;70.90;;;;;;6245750;23;20044;-76
2023/10/20 01:41:06;;;;;;;18.75;4.93;;;23.60;71.10;;;;;;6245262;23;20011;-76
2023/10/20 01:43:33;;;;;;;20.42;4.43;;;23.60;71.60;;;;;;6245426;23;20000;-77
2023/10/20 01:46:03;;;;;;;21.80;5.05;;;23.60;71.50;;;;;;6245349;23;20012;-77
2023/10/20 01:48:30;;;;;;;16.38;4.20;;;23.60;72.60;;;;;;6245644;23;20004;-76
2023/10/20 01:50:56;;;;;;;15.85;5.18;;;23.50;72.60;;;;;;6245798;23;20370;-76
2023/10/20 01:53:22;;;;;;;16.85;4.82;;;23.60;72.40;;;;;;6245404;23;20462;-76
2023/10/20 01:55:51;;;;;;;22.38;4.55;;;23.50;72.70;;;;;;6218239;23;20063;-77
2023/10/20 01:58:18;;;;;;;20.30;5.18;;;23.60;73.10;;;;;;6245335;23;20110;-76
2023/10/20 02:00:48;;;;;;;24.55;5.05;;;23.60;73.20;;;;;;6245235;23;20004;-76
2023/10/20 02:03:13;;;;;;;27.08;5.97;;;23.60;73.40;;;;;;6245042;23;20031;-77
2023/10/20 02:05:39;;;;;;;20.08;5.30;;;23.60;73.20;;;;;;6245088;23;20008;-76
2023/10/20 02:08:08;;;;;;;19.13;5.40;;;23.60;73.60;;;;;;6245313;23;20064;-75
2023/10/20 02:10:37;;;;;;;27.95;5.65;;;23.60;73.70;;;;;;6244714;23;20020;-75
2023/10/20 02:13:03;;;;;;;23.58;5.03;;;23.60;75.10;;;;;;6245175;23;20000;-75
2023/10/20 02:15:30;;;;;;;20.38;5.45;;;23.50;74.40;;;;;;6244711;23;20069;-75
2023/10/20 02:17:56;;;;;;;19.10;5.13;;;23.50;74.90;;;;;;6244975;23;19996;-76
2023/10/20 02:20:24;;;;;;;14.07;5.13;;;23.50;75.20;;;;;;6244764;23;20067;-77
2023/10/20 02:22:52;;;;;;;16.02;5.88;;;23.50;75.60;;;;;;6245042;23;20336;-78
2023/10/20 02:25:19;;;;;;;23.45;5.32;;;23.60;75.70;;;;;;6245409;23;20414;-75
2023/10/20 02:27:47;;;;;;;23.50;5.22;;;23.60;76.00;;;;;;6245352;23;20354;-76
2023/10/20 02:30:14;;;;;;;21.45;6.00;;;23.60;76.20;;;;;;6218275;23;20035;-75
2023/10/20 02:32:41;;;;;;;21.55;5.13;;;23.50;76.30;;;;;;6244934;23;20009;-75
2023/10/20 02:35:08;;;;;;;23.95;5.68;;;23.50;76.50;;;;;;6244782;23;20019;-76
2023/10/20 02:37:34;;;;;;;28.05;6.70;;;23.50;77.50;;;;;;6244923;23;20031;-75
2023/10/20 02:40:04;;;;;;;24.58;6.07;;;23.50;77.20;;;;;;6244971;23;20000;-76
2023/10/20 02:42:31;;;;;;;19.95;5.55;;;23.50;77.60;;;;;;6244318;23;20059;-76
2023/10/20 02:44:56;;;;;;;21.50;6.30;;;23.50;77.90;;;;;;6244499;23;19992;-75
2023/10/20 02:47:22;;;;;;;24.95;6.57;;;23.50;78.20;;;;;;6244376;23;20016;-75
2023/10/20 02:49:53;;;;;;;25.40;6.80;;;23.50;78.10;;;;;;6245489;23;20433;-75
2023/10/20 02:52:19;;;;;;;24.65;7.00;;;23.50;78.30;;;;;;6245607;23;20007;-77
2023/10/20 02:54:45;;;;;;;25.48;6.32;;;23.50;78.60;;;;;;6244815;23;20000;-76
2023/10/20 02:57:10;;;;;;;24.90;6.60;;;23.50;78.80;;;;;;6244614;23;20027;-77
2023/10/20 02:59:36;;;;;;;21.92;5.45;;;23.50;78.90;;;;;;6217576;23;20109;-76
2023/10/20 03:02:01;;;;;;;23.70;6.00;;;23.50;78.90;;;;;;6244676;23;20051;-77
2023/10/20 03:04:27;;;;;;;19.70;5.55;;;23.50;78.90;;;;;;6244602;23;19996;-76
2023/10/20 03:06:53;;;;;;;20.15;5.70;;;23.50;78.60;;;;;;6244597;23;20019;-76
2023/10/20 03:09:18;;;;;;;15.93;6.00;;;23.50;78.70;;;;;;6244712;23;20011;-76
2023/10/20 03:11:44;;;;;;;19.58;6.38;;;23.50;78.80;;;;;;6244586;23;20028;-76
2023/10/20 03:14:11;;;;;;;16.63;5.47;;;23.50;78.50;;;;;;6244408;23;20058;-77
2023/10/20 03:16:42;;;;;;;27.30;6.88;;;23.50;78.60;;;;;;6244716;23;20008;-76
2023/10/20 03:19:09;;;;;;;23.23;6.45;;;23.50;78.60;;;;;;6244858;23;20370;-76
2023/10/20 03:21:35;;;;;;;25.45;5.45;;;23.50;78.30;;;;;;6244468;23;20288;-76
2023/10/20 03:24:00;;;;;;;22.98;5.97;;;23.40;77.50;;;;;;6217824;23;20007;-77
2023/10/20 03:26:26;;;;;;;24.45;6.28;;;23.30;77.30;;;;;;6244558;23;20023;-76
2023/10/20 03:28:52;;;;;;;19.67;4.93;;;23.30;77.30;;;;;;6244368;23;20014;-76
2023/10/20 03:31:17;;;;;;;17.40;4.95;;;23.30;77.10;;;;;;6244271;23;20004;-76
2023/10/20 03:33:43;;;;;;;23.13;5.93;;;23.30;77.10;;;;;;6244309;23;20066;-76
2023/10/20 03:36:09;;;;;;;23.33;5.80;;;23.20;76.50;;;;;;6244371;23;20445;-75
2023/10/20 03:38:34;;;;;;;19.55;6.03;;;23.20;76.70;;;;;;6244651;23;20320;-76
2023/10/20 03:41:11;;;;;;;22.98;5.63;;;23.20;76.40;;;;;;6244564;23;20026;-76
2023/10/20 03:43:37;;;;;;;22.08;5.32;;;23.10;76.80;;;;;;6244399;23;20007;-76
2023/10/20 03:46:06;;;;;;;27.80;5.70;;;23.10;75.80;;;;;;6244511;23;20019;-76
2023/10/20 03:48:34;;;;;;;22.35;6.05;;;23.10;75.60;;;;;;6244693;23;20000;-78
2023/10/20 03:51:00;;;;;;;29.60;6.22;;;23.10;75.60;;;;;;6244303;23;20000;-76
2023/10/20 03:53:39;;;;;;;25.90;6.20;;;23.00;75.50;;;;;;6244214;23;20011;-77
2023/10/20 03:56:07;;;;;;;20.45;5.30;;;23.00;75.70;;;;;;6245038;23;20078;-77
2023/10/20 03:58:35;;;;;;;20.80;5.68;;;23.00;75.30;;;;;;6244340;23;20012;-76
2023/10/20 04:01:02;;;;;;;21.55;5.20;;;23.00;75.30;;;;;;6244589;23;20019;-76
2023/10/20 04:03:31;;;;;;;27.45;5.82;;;23.00;75.30;;;;;;6244407;23;20003;-76
2023/10/20 04:05:57;;;;;;;19.55;5.53;;;23.00;75.60;;;;;;6244265;23;20099;-76
2023/10/20 04:08:23;;;;;;;25.40;5.40;;;23.00;75.00;;;;;;6243730;23;19997;-76
2023/10/20 04:10:55;;;;;;;22.27;5.75;;;23.10;74.90;;;;;;6244133;23;20016;-76
2023/10/20 04:13:23;;;;;;;18.67;4.80;;;23.10;74.60;;;;;;6244191;23;20000;-77
2023/10/20 04:15:49;;;;;;;21.10;5.57;;;23.10;74.10;;;;;;6244240;23;20000;-76
2023/10/20 04:18:16;;;;;;;17.80;5.07;;;23.20;73.70;;;;;;6244329;23;19996;-78
2023/10/20 04:20:42;;;;;;;21.65;5.90;;;23.20;73.70;;;;;;6244249;23;20014;-76
2023/10/20 04:23:08;;;;;;;16.45;5.18;;;23.30;73.30;;;;;;6244777;23;20007;-76
2023/10/20 04:25:49;;;;;;;26.27;5.47;;;23.30;73.20;;;;;;6245114;23;20408;-76
2023/10/20 04:28:15;;;;;;;26.00;6.15;;;23.40;73.80;;;;;;6244132;23;20000;-77
2023/10/20 04:50:16;;;;;;;23.20;5.65;;;23.80;71.40;;;;;;6247599;23;20008;-76
2023/10/20 04:52:55;;;;;;;23.90;5.43;;;23.80;71.30;;;;;;6245441;23;20027;-77
2023/10/20 04:57:55;;;;;;;25.75;6.18;;;24.00;71.20;;;;;;6247037;23;20058;-76
2023/10/20 05:07:51;;;;;;;33.20;6.38;;;24.10;70.20;;;;;;6247018;23;20490;-77
2023/10/20 05:10:19;;;;;;;39.45;6.80;;;24.10;70.20;;;;;;6246038;23;20044;-76
2023/10/20 05:12:47;;;;;;;32.42;6.15;;;24.10;70.00;;;;;;6245927;23;20311;-77
2023/10/20 05:15:13;;;;;;;28.33;6.88;;;24.10;70.50;;;;;;6246107;23;20004;-77
2023/10/20 05:17:40;;;;;;;34.63;6.53;;;24.10;70.30;;;;;;6246409;23;20000;-77
2023/10/20 05:20:08;;;;;;;33.38;6.93;;;24.10;70.00;;;;;;6246208;23;20068;-77
2023/10/20 05:22:34;;;;;;;34.67;6.90;;;24.20;69.90;;;;;;6245714;23;20007;-76
2023/10/20 05:25:00;;;;;;;33.85;7.50;;;24.20;69.90;;;;;;6245764;23;20075;-80
2023/10/20 05:27:25;;;;;;;25.63;5.57;;;24.20;69.40;;;;;;6245480;23;20019;-79
2023/10/20 05:29:52;;;;;;;39.17;7.05;;;24.30;70.00;;;;;;6245454;23;20003;-76
2023/10/20 05:32:17;;;;;;;26.73;6.88;;;24.30;69.70;;;;;;6245820;23;20064;-77
2023/10/20 05:34:44;;;;;;;33.20;6.90;;;24.30;70.00;;;;;;6245531;23;19996;-77
2023/10/20 05:37:10;;;;;;;34.50;6.40;;;24.30;69.00;;;;;;6245354;23;20257;-76
2023/10/20 05:39:36;;;;;;;36.03;6.10;;;24.30;68.40;;;;;;6245461;23;19996;-77
2023/10/20 05:42:04;;;;;;;28.30;6.13;;;24.40;68.60;;;;;;6245365;23;20051;-78
2023/10/20 05:44:33;;;;;;;31.08;6.45;;;24.40;68.50;;;;;;6218742;23;20426;-77
2023/10/20 05:46:59;;;;;;;23.83;5.68;;;24.40;68.30;;;;;;6245541;23;20020;-78
2023/10/20 05:49:26;;;;;;;25.67;5.68;;;24.40;68.80;;;;;;6245497;23;20000;-77
2023/10/20 05:51:52;;;;;;;32.10;6.93;;;24.40;68.30;;;;;;6245247;23;20518;-77
2023/10/20 05:54:23;;;;;;;26.00;6.07;;;24.40;68.20;;;;;;6245761;23;20031;-78
2023/10/20 05:56:49;;;;;;;43.13;6.55;;;24.50;68.00;;;;;;6245331;23;20057;-77
2023/10/20 05:59:14;;;;;;;26.90;6.20;;;24.50;67.60;;;;;;6244820;23;20000;-77
2023/10/20 06:01:40;;;;;;;32.20;7.00;;;24.50;67.60;;;;;;6245156;23;20001;-77
2023/10/20 06:04:08;;;;;;;33.70;6.68;;;24.60;67.90;;;;;;6244948;23;20474;-79
2023/10/20 06:06:33;;;;;;;32.90;6.55;;;24.70;67.30;;;;;;6244987;23;20030;-78
2023/10/20 06:08:59;;;;;;;31.50;6.78;;;24.70;67.50;;;;;;6244678;23;20386;-78
2023/10/20 06:11:25;;;;;;;27.77;6.68;;;24.70;67.40;;;;;;6244801;23;20074;-79
2023/10/20 06:13:50;;;;;;;28.65;6.53;;;24.70;67.30;;;;;;6245448;23;20357;-78
2023/10/20 06:16:16;;;;;;;42.63;7.78;;;24.80;67.10;;;;;;6244856;23;20410;-78
2023/10/20 06:18:42;;;;;;;36.20;8.13;;;24.80;67.30;;;;;;6244668;23;20000;-79
2023/10/20 06:21:16;;;;;;;47.60;7.80;;;24.80;67.00;;;;;;6244871;23;20004;-78
2023/10/20 06:23:43;;;;;;;36.78;7.90;;;24.80;67.10;;;;;;6244704;23;20004;-78
2023/10/20 06:26:08;;;;;;;34.40;7.75;;;24.90;66.40;;;;;;6244604;23;20019;-78
2023/10/20 06:28:34;;;;;;;39.17;7.47;;;24.90;66.90;;;;;;6244751;23;20027;-79
2023/10/20 06:31:27;;;;;;;41.53;8.23;;;25.00;67.00;;;;;;6244901;23;20012;-77
2023/10/20 06:33:54;;;;;;;45.65;7.72;;;25.00;66.00;;;;;;6244502;23;20035;-79
2023/10/20 06:36:25;;;;;;;36.13;6.90;;;25.10;66.30;;;;;;6244866;23;20434;-80
2023/10/20 06:38:51;;;;;;;35.45;7.10;;;25.20;66.40;;;;;;6244521;23;20496;-77
2023/10/20 06:41:17;;;;;;;40.55;7.70;;;25.30;66.60;;;;;;6244519;23;20004;-78
2023/10/20 06:43:46;;;;;;;37.42;7.00;;;25.30;66.60;;;;;;6245054;23;20004;-79
2023/10/20 06:46:12;;;;;;;35.95;7.40;;;25.30;66.80;;;;;;6244772;23;20150;-72
2023/10/20 06:48:38;;;;;;;42.15;8.00;;;25.40;66.20;;;;;;6217738;23;20008;-72
2023/10/20 06:51:04;;;;;;;46.60;7.95;;;25.40;66.40;;;;;;6244200;23;20016;-73
2023/10/20 06:53:29;;;;;;;49.53;7.97;;;25.40;66.70;;;;;;6244337;23;20006;-82
2023/10/20 06:55:56;;;;;;;42.55;7.53;;;25.50;66.70;;;;;;6244922;23;20000;-81
2023/10/20 06:58:21;;;;;;;44.70;7.13;;;25.50;66.70;;;;;;6244599;23;20012;-79
2023/10/20 07:00:47;;;;;;;32.83;6.95;;;25.50;66.70;;;;;;6243890;23;20032;-80
2023/10/20 07:03:14;;;;;;;36.83;7.43;;;25.50;66.70;;;;;;6217377;23;20013;-77
2023/10/20 07:05:40;;;;;;;39.72;7.88;;;25.50;66.90;;;;;;6245045;23;20031;-79
2023/10/20 07:08:07;;;;;;;39.17;7.40;;;25.50;67.10;;;;;;6244802;23;20044;-79
2023/10/20 07:10:39;;;;;;;36.83;7.70;;;25.50;66.80;;;;;;6244100;23;20020;-81
2023/10/20 07:13:06;;;;;;;35.67;7.10;;;25.50;67.00;;;;;;6217327;23;20008;-77
2023/10/20 07:15:34;;;;;;;38.17;7.93;;;25.50;67.20;;;;;;6237387;23;20226;-77
2023/10/20 07:17:59;;;;;;;42.95;8.65;;;25.60;67.80;;;;;;6235072;23;20139;-82
2023/10/20 07:20:26;;;;;;;39.03;7.50;;;25.60;67.20;;;;;;6216572;23;20044;-79
2023/10/20 07:22:52;;;;;;;33.10;6.63;;;25.60;67.10;;;;;;6247216;23;20004;-81
2023/10/20 07:25:18;;;;;;;34.63;6.72;;;25.70;67.40;;;;;;6243599;23;20019;-81
2023/10/20 07:27:43;;;;;;;39.97;7.93;;;25.70;67.90;;;;;;6238749;23;20008;-80
2023/10/20 07:30:11;;;;;;;40.95;7.55;;;25.70;67.00;;;;;;6244731;23;20031;-80
2023/10/20 07:32:37;;;;;;;39.67;7.63;;;25.70;67.50;;;;;;6245052;23;20370;-80
2023/10/20 07:35:03;;;;;;;50.70;9.60;;;25.70;67.70;;;;;;6244233;23;20008;-81
2023/10/20 07:37:29;;;;;;;45.70;7.70;;;25.80;67.80;;;;;;6236569;23;20229;-78
2023/10/20 07:39:55;;;;;;;31.55;7.05;;;25.80;68.00;;;;;;6244062;23;20023;-81
2023/10/20 07:42:21;;;;;;;50.22;8.07;;;25.80;67.90;;;;;;6243896;23;20430;-82
2023/10/20 07:44:47;;;;;;;41.00;7.45;;;25.80;68.20;;;;;;6244413;23;20039;-83
2023/10/20 07:47:13;;;;;;;36.35;7.28;;;25.80;67.70;;;;;;6244506;23;20020;-81
2023/10/20 07:49:39;;;;;;;39.92;7.75;;;25.80;68.00;;;;;;6249026;23;20065;-78
2023/10/20 07:52:04;;;;;;;43.17;7.47;;;25.80;67.90;;;;;;6245856;23;20000;-76
2023/10/20 07:54:30;;;;;;;40.97;7.57;;;25.90;68.10;;;;;;6244542;23;20001;-76
2023/10/20 07:56:56;;;;;;;52.53;9.63;;;25.90;67.90;;;;;;6237096;23;20079;-76
2023/10/20 07:59:22;;;;;;;51.53;8.50;;;26.00;68.20;;;;;;6244148;23;20003;-78
2023/10/20 08:01:48;;;;;;;52.60;8.93;;;26.10;67.70;;;;;;6244027;23;20004;-73
2023/10/20 08:04:13;;;;;;;34.58;8.07;;;26.10;68.00;;;;;;6243823;23;20008;-73
2023/10/20 08:06:39;;;;;;;29.13;7.15;;;26.10;68.10;;;;;;6237046;23;20008;-74
2023/10/20 08:09:05;;;;;;;44.65;7.93;;;26.20;67.90;;;;;;6246019;23;20000;-72
2023/10/20 08:11:30;;;;;;;48.55;8.73;;;26.30;67.50;;;;;;6245826;23;20091;-72
2023/10/20 08:13:57;;;;;;;46.42;8.15;;;26.40;67.60;;;;;;6246208;23;20008;-73
2023/10/20 08:16:23;;;;;;;44.28;7.85;;;26.40;67.50;;;;;;6239239;23;20010;-74
2023/10/20 08:18:51;;;;;;;37.03;7.88;;;26.50;67.70;;;;;;6246028;23;20020;-76
2023/10/20 08:21:16;;;;;;;37.17;7.50;;;26.50;67.70;;;;;;6245910;23;20382;-72
2023/10/20 08:23:43;;;;;;;38.90;8.18;;;26.60;67.70;;;;;;6245842;23;20046;-73
2023/10/20 08:26:15;;;;;;;29.15;6.90;;;26.60;67.70;;;;;;6240853;23;20015;-73
2023/10/20 08:28:42;;;;;;;36.87;7.50;;;26.60;67.50;;;;;;6244969;23;19996;-72
2023/10/20 08:31:10;;;;;;;31.45;7.28;;;26.60;67.40;;;;;;6245798;23;20071;-72
2023/10/20 08:33:36;;;;;;;43.42;8.13;;;26.70;67.40;;;;;;6245888;23;20003;-72
2023/10/20 08:36:20;;;;;;;39.42;7.82;;;26.60;67.10;;;;;;6240811;23;20011;-70
2023/10/20 08:38:47;;;;;;;38.60;7.40;;;26.60;67.20;;;;;;6245098;23;20067;-72
2023/10/20 08:41:15;;;;;;;34.13;7.85;;;26.60;67.60;;;;;;6245047;23;20023;-71
2023/10/20 08:43:42;;;;;;;33.92;7.20;;;26.60;67.80;;;;;;6245530;23;20014;-72
2023/10/20 08:46:09;;;;;;;38.08;7.93;;;26.60;67.80;;;;;;6239807;23;20016;-73
2023/10/20 08:48:45;;;;;;;38.38;8.48;;;26.60;67.90;;;;;;6243916;23;20007;-72
2023/10/20 08:51:13;;;;;;;32.33;7.85;;;26.60;68.00;;;;;;6245617;23;20079;-72
2023/10/20 08:53:39;;;;;;;35.53;8.13;;;26.60;68.20;;;;;;6245369;23;20063;-73
2023/10/20 08:56:09;;;;;;;30.38;6.72;;;26.70;68.00;;;;;;6240307;23;20074;-73
2023/10/20 08:58:35;;;;;;;36.65;7.57;;;26.90;68.10;;;;;;6243443;23;20016;-74
2023/10/20 09:01:02;;;;;;;39.58;7.82;;;27.00;67.60;;;;;;6245635;23;20087;-73
2023/10/20 09:03:38;;;;;;;37.15;7.40;;;27.10;66.90;;;;;;6245484;23;20419;-71
2023/10/20 09:06:09;;;;;;;35.78;7.05;;;27.20;67.10;;;;;;6240192;23;20074;-71
2023/10/20 09:08:36;;;;;;;37.65;7.97;;;27.20;66.70;;;;;;6244064;23;20063;-73
2023/10/20 09:11:02;;;;;;;38.28;8.45;;;27.30;66.90;;;;;;6245446;22;20019;-71
2023/10/20 09:13:35;;;;;;;42.08;9.07;;;27.30;66.50;;;;;;6245247;23;20004;-70
2023/10/20 09:16:07;;;;;;;56.37;13.40;;;27.40;66.30;;;;;;6240424;23;20424;-74
2023/10/20 09:18:41;;;;;;;47.67;12.07;;;27.40;66.10;;;;;;6242967;23;20215;-70
2023/10/20 09:21:07;;;;;;;52.72;11.00;;;27.50;66.00;;;;;;6245253;23;20235;-73
2023/10/20 09:23:33;;;;;;;49.85;11.95;;;27.50;65.70;;;;;;6245821;23;20007;-73
2023/10/20 09:25:59;;;;;;;47.67;9.50;;;27.60;65.70;;;;;;6240598;23;20012;-71
2023/10/20 09:28:24;;;;;;;40.40;8.52;;;27.60;65.50;;;;;;6243233;23;20068;-73
2023/10/20 09:30:53;;;;;;;41.45;9.60;;;27.60;65.60;;;;;;6245210;23;20130;-72
2023/10/20 09:33:21;;;;;;;40.42;8.15;;;27.70;65.80;;;;;;6245037;23;20023;-73
2023/10/20 09:35:46;;;;;;;43.53;9.38;;;27.70;65.60;;;;;;6241061;23;20023;-71
2023/10/20 09:38:13;;;;;;;38.20;8.75;;;27.70;65.50;;;;;;6242836;23;20004;-72
2023/10/20 09:40:42;;;;;;;40.13;9.05;;;27.70;65.20;;;;;;6245451;23;20019;-70
2023/10/20 09:43:36;;;;;;;38.58;8.48;;;27.80;65.30;;;;;;6245061;23;20449;-71
2023/10/20 09:46:07;;;;;;;;;;;27.80;65.30;;;;;;6241287;23;20016;-72
2023/10/20 09:48:36;;;;;;;40.40;8.70;;;27.80;64.60;;;;;;6243160;23;19907;-72
2023/10/20 09:51:04;;;;;;;42.33;8.68;;;27.70;65.50;;;;;;6245261;23;20007;-72
2023/10/20 09:53:30;;;;;;;41.70;7.70;;;27.70;65.40;;;;;;6244973;23;20075;-77
2023/10/20 09:55:56;;;;;;;41.08;7.97;;;27.70;65.30;;;;;;6240814;23;20020;-79
2023/10/20 09:58:33;;;;;;;37.13;8.65;;;27.80;65.20;;;;;;6242899;23;20007;-75
2023/10/20 10:01:00;;;;;;;38.17;8.63;;;27.80;65.20;;;;;;6245360;23;19996;-78
2023/10/20 10:03:40;;;;;;;43.25;8.30;;;27.80;65.00;;;;;;6244945;23;20077;-76
2023/10/20 10:06:12;;;;;;;32.85;8.25;;;27.90;65.10;;;;;;6240069;23;20027;-73
2023/10/20 10:08:41;;;;;;;41.20;8.35;;;27.90;64.80;;;;;;6243873;23;19997;-76
2023/10/20 10:11:26;;;;;;;38.50;8.50;;;28.00;64.50;;;;;;6245186;23;20016;-74
2023/10/20 10:13:59;;;;;;;32.33;7.65;;;28.20;64.30;;;;;;6245266;23;20091;-71
2023/10/20 10:16:25;;;;;;;35.72;7.78;;;28.30;64.40;;;;;;6238557;23;20004;-74
2023/10/20 10:18:54;;;;;;;31.63;7.65;;;28.40;64.10;;;;;;6245355;23;20079;-73
2023/10/20 10:21:30;;;;;;;47.63;8.48;;;28.50;63.90;;;;;;6245836;23;20020;-72
2023/10/20 10:24:08;;;;;;;32.10;7.97;;;28.50;63.80;;;;;;6245204;23;20011;-73
2023/10/20 10:26:34;;;;;;;37.65;7.93;;;28.50;63.70;;;;;;6237805;23;20453;-75
2023/10/20 10:28:59;;;;;;;48.83;7.97;;;28.50;63.80;;;;;;6245021;23;19997;-74
2023/10/20 10:31:37;;;;;;;33.95;7.57;;;28.40;63.60;;;;;;6244428;23;20004;-74
2023/10/20 10:34:04;;;;;;;38.17;7.60;;;28.50;62.80;;;;;;6245014;23;20011;-74
2023/10/20 10:36:50;;;;;;;32.75;8.55;;;28.50;63.10;;;;;;6238050;23;20080;-72
2023/10/20 10:39:29;;;;;;;41.63;7.90;;;28.50;62.80;;;;;;6244301;23;20015;-69
2023/10/20 10:42:02;;;;;;;34.20;7.57;;;28.60;62.50;;;;;;6217047;23;20011;-74
2023/10/20 10:44:35;;;;;;;33.55;8.50;;;28.60;62.70;;;;;;6244305;23;20082;-72
2023/10/20 10:47:05;;;;;;;44.75;8.85;;;28.60;62.40;;;;;;6238091;23;20016;-74
2023/10/20 10:49:32;;;;;;;39.22;8.05;;;28.50;62.50;;;;;;6244525;23;20423;-75
2023/10/20 10:52:03;;;;;;;48.15;8.98;;;28.50;62.20;;;;;;6245131;23;19997;-75
2023/10/20 10:54:33;;;;;;;39.00;8.70;;;28.40;62.30;;;;;;6244889;23;20011;-74
2023/10/20 10:57:00;;;;;;;41.80;8.60;;;28.40;62.30;;;;;;6210117;23;20008;-74
2023/10/20 10:59:27;;;;;;;43.80;8.85;;;28.30;62.40;;;;;;6244635;23;20008;-75
2023/10/20 11:01:53;;;;;;;39.92;7.95;;;28.30;62.70;;;;;;6244838;23;19996;-72
2023/10/20 11:04:19;;;;;;;51.45;9.00;;;28.30;63.00;;;;;;6244210;23;20004;-74
2023/10/20 11:06:45;;;;;;;46.78;8.60;;;28.20;63.40;;;;;;6210217;23;20028;-73
2023/10/20 11:09:13;;;;;;;36.85;8.98;;;28.10;63.90;;;;;;6244188;22;20012;-75
2023/10/20 11:11:42;;;;;;;44.03;9.50;;;28.10;64.20;;;;;;6244374;23;20012;-77
2023/10/20 11:14:09;;;;;;;45.88;8.40;;;28.10;64.40;;;;;;6217498;23;20004;-71
2023/10/20 11:16:36;;;;;;;42.15;8.82;;;28.20;64.70;;;;;;6236624;23;20008;-74
2023/10/20 11:19:02;;;;;;;43.88;8.48;;;28.20;64.70;;;;;;6244918;23;20074;-73
2023/10/20 11:21:29;;;;;;;40.15;9.10;;;28.30;64.70;;;;;;6244695;23;20075;-77
2023/10/20 11:23:58;;;;;;;36.38;8.10;;;28.30;64.40;;;;;;6217608;23;20362;-76
2023/10/20 11:26:28;;;;;;;39.50;8.15;;;28.40;64.50;;;;;;6237994;23;20077;-77
2023/10/20 11:28:57;;;;;;;45.78;9.18;;;28.40;64.50;;;;;;6245082;23;20008;-75
2023/10/20 11:31:23;;;;;;;49.50;9.40;;;28.40;64.50;;;;;;6245076;23;20088;-75
2023/10/20 11:33:48;;;;;;;42.55;7.95;;;28.40;64.60;;;;;;6244308;23;20415;-81
2023/10/20 11:36:14;;;;;;;39.58;8.95;;;28.40;64.60;;;;;;6239406;23;20011;-80
2023/10/20 11:38:40;;;;;;;45.80;9.57;;;28.30;64.70;;;;;;6243009;23;20020;-73
2023/10/20 11:41:05;;;;;;;35.33;8.80;;;28.30;64.40;;;;;;6244605;23;20001;-73
2023/10/20 11:43:31;;;;;;;37.03;8.98;;;28.30;64.50;;;;;;6245662;23;20081;-74
2023/10/20 11:45:57;;;;;;;39.65;8.15;;;28.30;64.70;;;;;;6241678;23;20073;-73
2023/10/20 11:48:23;;;;;;;41.83;8.65;;;28.30;64.70;;;;;;6243734;23;20406;-73
2023/10/20 11:50:49;;;;;;;36.42;8.15;;;28.30;64.60;;;;;;6246275;23;20334;-74
2023/10/20 11:53:14;;;;;;;40.17;7.38;;;28.30;64.40;;;;;;6246074;23;20079;-75
2023/10/20 11:55:41;;;;;;;37.22;8.35;;;28.40;64.40;;;;;;6243239;23;20050;-75
2023/10/20 11:58:06;;;;;;;32.28;7.95;;;28.50;64.00;;;;;;6243051;23;20000;-75
2023/10/20 12:00:32;;;;;;;37.45;8.63;;;28.50;63.80;;;;;;6246059;23;20380;-75
2023/10/20 12:02:58;;;;;;;45.08;9.20;;;28.50;63.60;;;;;;6246167;23;20003;-74
2023/10/20 12:05:24;;;;;;;40.50;8.43;;;28.50;63.50;;;;;;6244457;23;20014;-75
2023/10/20 12:07:50;;;;;;;38.72;9.02;;;28.40;63.40;;;;;;6241345;23;20018;-74
2023/10/20 12:10:16;;;;;;;36.17;7.72;;;28.30;63.30;;;;;;6246165;22;20020;-74
2023/10/20 12:12:42;;;;;;;36.75;8.63;;;28.20;63.60;;;;;;6246316;23;20009;-75
2023/10/20 12:15:08;;;;;;;45.65;8.48;;;28.10;64.00;;;;;;6246412;23;19996;-80
2023/10/20 12:17:33;;;;;;;38.58;7.75;;;28.00;64.50;;;;;;6239568;23;20450;-83
2023/10/20 12:19:59;;;;;;;48.58;9.20;;;28.00;64.80;;;;;;6219776;23;20000;-78
2023/10/20 12:22:28;;;;;;;47.47;9.52;;;27.90;65.00;;;;;;6246392;23;20000;-77
2023/10/20 12:24:54;;;;;;;33.50;9.15;;;27.90;65.10;;;;;;6246750;23;20099;-73
2023/10/20 12:27:20;;;;;;;38.65;8.80;;;27.80;65.30;;;;;;6238878;23;20435;-78
2023/10/20 12:29:46;;;;;;;36.47;8.18;;;27.70;65.50;;;;;;6246814;23;20023;-83
2023/10/20 12:32:15;;;;;;;51.00;9.70;;;27.70;65.80;;;;;;6247950;23;20078;-82
2023/10/20 12:34:40;;;;;;;39.40;8.27;;;27.60;65.70;;;;;;6246939;23;20050;-80
2023/10/20 12:37:07;;;;;;;47.15;8.60;;;27.60;66.20;;;;;;6244374;23;20000;-83
2023/10/20 12:39:33;;;;;;;41.20;9.38;;;27.50;66.30;;;;;;6257869;23;19996;-85
2023/10/20 12:42:02;;;;;;;36.90;8.18;;;27.40;66.30;;;;;;6248687;23;20010;-83
2023/10/20 12:44:29;;;;;;;38.55;9.07;;;27.40;66.30;;;;;;6220411;23;20100;-82
2023/10/20 12:46:55;;;;;;;35.65;7.88;;;27.40;66.60;;;;;;6239968;23;20439;-81
2023/10/20 12:49:21;;;;;;;41.80;8.43;;;27.30;66.70;;;;;;6247229;23;20331;-83
2023/10/20 12:51:46;;;;;;;36.20;8.10;;;27.30;66.60;;;;;;6247295;23;19996;-84
2023/10/20 12:54:12;;;;;;;48.38;8.38;;;27.30;66.90;;;;;;6246549;23;20482;-81
2023/10/20 12:56:38;;;;;;;39.47;9.30;;;27.30;66.80;;;;;;6240270;23;20000;-82
2023/10/20 12:59:04;;;;;;;46.35;10.13;;;27.30;67.10;;;;;;6246545;23;20035;-82
2023/10/20 13:01:29;;;;;;;42.05;9.00;;;27.30;67.10;;;;;;6246390;23;20486;-80
2023/10/20 13:03:55;;;;;;;37.10;7.80;;;27.20;67.20;;;;;;6246376;23;20039;-78
2023/10/20 13:06:21;;;;;;;39.17;8.60;;;27.20;67.40;;;;;;6239515;23;20504;-79
2023/10/20 13:08:46;;;;;;;47.08;10.60;;;27.20;67.60;;;;;;6245682;23;20426;-82